LGKFLGZA

Guest
Details From LGKF - Kefallinia
To LGZA - Dionysios Solomos
Flight Number -
Tags generated
Created
Modified
Stats Distance 29 nm / 53 km
Max Altitude 100 ft / 30 m
Waypoints 3
Social Downloads 0
Likes 0
Share VATSIM

Download

Looking for another format? Having issues loading an existing format? Contact us
Advertisement - Login to hide

Notes

Basic altitude profile: - Ascent Rate: 2500ft/min - Ascent Speed: 250kts - Cruise Altitude: 35000ft - Cruise Speed: 420kts - Descent Rate: 1500ft/min - Descent Speed: 250kts Options: - Use NATs: yes - Use PACOTS: yes - Use low airways: yes - Use high airways: yes

Route

LGKF KFN LGZA

ID Type Via Altitude Latitude Longitude Leg Dist Tot Dist Heading (true) Name
O LGKF APT - 0 ft / 0 m 38.12007˚ 20.50048˚ - 0 nm - Kefallinia
KFN VOR - 100 ft / 30 m 38.11306˚ 20.50472˚ 0 nm 0 nm 155° / 155° KEFALLINIA VOR-DME
O LGZA APT - 0 ft / 0 m 37.75123˚ 20.88411˚ 28 nm 28 nm 140° / 141° Dionysios Solomos

Altitude Profile

Advertisement - Login to hide

LGKF

Details ICAO LGKF (EFL)
Name Kefallinia
Region Greece
Timezone Europe/Athens (UTC+2.0)
Stats Elevation 59 ft / 18 m (AMSL)
Location 38.120069° 20.500480°
Runways 1
Magnetic Variation 4.051° E

METAR

LGKF 121550Z 16005KT 9999 FEW016 SCT020 16/15 Q1022

Decode

TAF

Not found

Departure Runways

ID Width Length Bearing (true) Bearing (mag) Surface Threshold Offset Overrun Length
14 148 ft / 45 m 7,979 ft / 2,432 m 146.39° 142.34° Asphalt 0 ft / 0 m 180 ft / 55 m
32 148 ft / 45 m 7,979 ft / 2,432 m 326.40° 322.35° Asphalt 912 ft / 278 m 100 ft / 30 m

LGZA

Details ICAO LGZA (ZTH)
Name Dionysios Solomos
Region Greece
Timezone Europe/Athens (UTC+2.0)
Stats Elevation 14 ft / 4 m (AMSL)
Location 37.751230° 20.884106°
Runways 1
Magnetic Variation 4.072° E

METAR

LGZA 121550Z 00000KT 9999 FEW015 14/13 Q1023

Decode

TAF

Not found

Destination Runways

ID Width Length Bearing (true) Bearing (mag) Surface Threshold Offset Overrun Length
16 148 ft / 45 m 7,315 ft / 2,230 m 163.49° 159.42° Asphalt 715 ft / 218 m 112 ft / 34 m
34 148 ft / 45 m 7,315 ft / 2,230 m 343.49° 339.42° Asphalt 728 ft / 222 m 135 ft / 41 m

Popular Alternatives